Time;durP1;ratioP1;P1;durP2;ratioP2;P2;SDS_P1;SDS_P2;PMS_P1;PMS_P2;Temp;Humidity;BMP_temperature;BMP_pressure;BME280_temperature;BME280_humidity;BME280_pressure;Samples;Min_cycle;Max_cycle;Signal;HPM_P1;HPM_P2
2022/09/24 00:00:40;;;;;;;7.20;4.07;;;;;;;;;;5069771;28;20460;-71
2022/09/24 00:03:07;;;;;;;6.23;4.03;;;;;;;;;;5057226;28;20487;-71
2022/09/24 00:05:38;;;;;;;6.37;4.00;;;;;;;;;;5070186;28;20456;-71
2022/09/24 00:08:06;;;;;;;3.50;3.20;;;;;;;;;;5070643;28;20917;-71
2022/09/24 00:10:38;;;;;;;5.23;3.77;;;;;;;;;;5069815;28;20821;-71
2022/09/24 00:13:05;;;;;;;5.03;4.33;;;;;;;;;;5073731;28;20446;-71
2022/09/24 00:15:36;;;;;;;4.50;3.00;;;;;;;;;;5073848;28;20446;-71
2022/09/24 00:18:04;;;;;;;4.23;3.53;;;;;;;;;;5074959;28;20449;-71
2022/09/24 00:20:31;;;;;;;5.43;3.73;;;;;;;;;;5073208;28;20988;-71
2022/09/24 00:23:00;;;;;;;4.30;3.80;;;;;;;;;;5074041;28;20482;-73
2022/09/24 00:28:13;;;;;;;5.40;3.37;;;;;;;;;;5073899;28;20607;-72
2022/09/24 00:30:40;;;;;;;4.50;3.40;;;;;;;;;;5072872;28;20478;-71
2022/09/24 00:33:07;;;;;;;5.37;3.10;;;;;;;;;;5073911;28;20457;-72
2022/09/24 00:35:34;;;;;;;4.70;3.00;;;;;;;;;;5073754;28;20449;-71
2022/09/24 00:38:04;;;;;;;4.50;3.40;;;;;;;;;;5073706;28;20928;-71
2022/09/24 00:40:32;;;;;;;4.47;3.17;;;;;;;;;;5072990;28;20944;-71
2022/09/24 00:42:59;;;;;;;4.70;3.57;;;;;;;;;;5073948;28;20491;-71
2022/09/24 00:45:28;;;;;;;8.70;4.10;;;;;;;;;;5073461;28;20948;-71
2022/09/24 00:47:56;;;;;;;3.73;3.17;;;;;;;;;;5073606;28;20952;-71
2022/09/24 00:50:24;;;;;;;4.37;3.53;;;;;;;;;;5073316;28;20460;-71
2022/09/24 00:52:53;;;;;;;5.27;4.20;;;;;;;;;;5073558;28;20448;-71
2022/09/24 00:55:23;;;;;;;4.17;2.77;;;;;;;;;;5072883;28;20810;-71
2022/09/24 00:57:51;;;;;;;6.17;4.10;;;;;;;;;;5073400;28;21435;-71
2022/09/24 01:00:19;;;;;;;6.67;4.53;;;;;;;;;;5072068;28;20924;-70
2022/09/24 01:02:48;;;;;;;4.60;3.80;;;;;;;;;;5073316;28;20472;-72
2022/09/24 01:05:15;;;;;;;4.10;3.60;;;;;;;;;;5072738;28;20451;-72
2022/09/24 01:07:42;;;;;;;6.13;3.90;;;;;;;;;;5072543;28;20543;-72
2022/09/24 01:10:09;;;;;;;4.87;3.70;;;;;;;;;;5073110;28;20823;-73
2022/09/24 01:12:41;;;;;;;5.00;3.40;;;;;;;;;;5072546;28;21836;-72
2022/09/24 01:15:14;;;;;;;4.83;3.80;;;;;;;;;;5072850;28;20945;-72
2022/09/24 01:17:45;;;;;;;4.73;3.63;;;;;;;;;;5072375;28;20491;-73
2022/09/24 01:20:33;;;;;;;5.20;3.90;;;;;;;;;;5072857;28;20449;-70
2022/09/24 01:23:16;;;;;;;4.30;3.90;;;;;;;;;;5067500;28;20817;-70
2022/09/24 01:25:50;;;;;;;6.00;3.87;;;;;;;;;;5071708;28;20466;-70
2022/09/24 01:28:29;;;;;;;4.20;3.30;;;;;;;;;;5072152;28;20571;-71
2022/09/24 01:31:00;;;;;;;4.83;3.30;;;;;;;;;;5067027;28;20444;-72
2022/09/24 01:33:28;;;;;;;4.10;3.70;;;;;;;;;;5072350;28;20895;-72
2022/09/24 01:35:58;;;;;;;4.27;3.47;;;;;;;;;;5072782;28;20460;-72
2022/09/24 01:38:26;;;;;;;5.77;4.13;;;;;;;;;;5072038;28;20458;-72
2022/09/24 01:40:54;;;;;;;4.60;3.43;;;;;;;;;;5072544;28;20457;-71
2022/09/24 01:43:23;;;;;;;5.40;3.73;;;;;;;;;;5072159;28;20489;-71
2022/09/24 01:45:51;;;;;;;4.63;3.87;;;;;;;;;;5073102;28;20518;-71
2022/09/24 01:48:20;;;;;;;4.87;3.67;;;;;;;;;;5071957;28;20450;-71
2022/09/24 01:50:51;;;;;;;3.63;3.20;;;;;;;;;;5072619;28;20464;-71
2022/09/24 01:53:20;;;;;;;4.27;3.33;;;;;;;;;;5071607;28;21002;-71
2022/09/24 01:55:51;;;;;;;4.70;3.97;;;;;;;;;;5072476;28;20820;-71
2022/09/24 01:58:19;;;;;;;5.03;3.63;;;;;;;;;;5058296;28;20531;-71
2022/09/24 02:00:48;;;;;;;5.43;4.10;;;;;;;;;;5071385;28;20451;-70
2022/09/24 02:03:18;;;;;;;5.17;3.60;;;;;;;;;;5059898;28;20521;-71
2022/09/24 02:05:49;;;;;;;6.60;4.10;;;;;;;;;;5072185;28;20948;-71
2022/09/24 02:08:19;;;;;;;3.40;3.00;;;;;;;;;;5072075;28;20540;-71
2022/09/24 02:10:48;;;;;;;4.83;3.90;;;;;;;;;;5072312;28;20483;-71
2022/09/24 02:13:16;;;;;;;4.33;3.37;;;;;;;;;;5071930;28;20452;-71
2022/09/24 02:15:46;;;;;;;3.53;3.23;;;;;;;;;;5072108;28;20458;-70
2022/09/24 02:18:15;;;;;;;6.93;3.83;;;;;;;;;;5071761;28;20464;-71
2022/09/24 02:20:43;;;;;;;3.57;3.20;;;;;;;;;;5071366;28;20449;-71
2022/09/24 02:23:14;;;;;;;7.77;4.50;;;;;;;;;;5071798;28;20563;-71
2022/09/24 02:25:43;;;;;;;4.97;3.93;;;;;;;;;;5069255;28;20499;-71
2022/09/24 02:28:10;;;;;;;5.50;3.03;;;;;;;;;;5069042;28;20571;-71
2022/09/24 02:30:40;;;;;;;5.10;4.27;;;;;;;;;;5071024;28;20449;-71
2022/09/24 02:34:19;;;;;;;4.67;4.23;;;;;;;;;;5071906;28;20445;-71
2022/09/24 02:35:54;;;;;;;4.00;3.63;;;;;;;;;;5070099;28;20510;-71
2022/09/24 02:38:23;;;;;;;5.07;3.57;;;;;;;;;;5069991;28;20960;-71
2022/09/24 02:40:51;;;;;;;3.53;3.23;;;;;;;;;;5071467;28;20446;-71
2022/09/24 02:43:19;;;;;;;4.87;3.20;;;;;;;;;;5070661;28;20483;-71
2022/09/24 02:45:46;;;;;;;4.33;3.93;;;;;;;;;;5071641;28;20451;-71
2022/09/24 02:48:13;;;;;;;5.40;3.27;;;;;;;;;;5071108;28;20460;-71
2022/09/24 02:50:40;;;;;;;5.60;3.80;;;;;;;;;;5070733;28;20460;-71
2022/09/24 02:53:07;;;;;;;5.33;3.97;;;;;;;;;;5071302;28;20831;-71
2022/09/24 02:55:35;;;;;;;4.57;3.17;;;;;;;;;;5070613;28;20461;-71
2022/09/24 02:58:02;;;;;;;5.50;3.50;;;;;;;;;;5071030;28;20484;-71
2022/09/24 03:00:29;;;;;;;8.50;4.30;;;;;;;;;;5070394;28;20464;-71
2022/09/24 03:02:56;;;;;;;6.50;3.50;;;;;;;;;;5068262;28;20485;-71
2022/09/24 03:05:24;;;;;;;6.73;3.43;;;;;;;;;;5070355;28;20461;-71
2022/09/24 03:07:51;;;;;;;3.40;3.00;;;;;;;;;;5071107;28;20808;-71
2022/09/24 03:10:18;;;;;;;6.20;3.50;;;;;;;;;;5070453;28;20462;-71
2022/09/24 03:12:46;;;;;;;8.87;3.90;;;;;;;;;;5071099;28;20454;-71
2022/09/24 03:15:13;;;;;;;4.13;3.10;;;;;;;;;;5071377;28;20454;-71
2022/09/24 03:17:41;;;;;;;4.40;3.30;;;;;;;;;;5069972;28;20973;-71
2022/09/24 03:20:08;;;;;;;3.60;3.10;;;;;;;;;;5070702;28;20528;-71
2022/09/24 03:22:35;;;;;;;4.50;3.77;;;;;;;;;;5070515;28;20481;-71
2022/09/24 03:25:02;;;;;;;3.20;2.90;;;;;;;;;;5070477;28;20793;-71
2022/09/24 03:27:29;;;;;;;4.43;3.40;;;;;;;;;;5069884;28;20488;-71
2022/09/24 03:32:42;;;;;;;5.00;3.57;;;;;;;;;;5070394;28;20439;-71
2022/09/24 03:35:10;;;;;;;4.00;3.60;;;;;;;;;;5070711;28;20461;-71
2022/09/24 03:37:40;;;;;;;4.73;3.40;;;;;;;;;;5070287;28;20791;-71
2022/09/24 03:40:08;;;;;;;2.43;2.23;;;;;;;;;;5070691;28;20453;-72
2022/09/24 03:42:35;;;;;;;4.90;3.50;;;;;;;;;;5070466;28;21060;-71
2022/09/24 03:45:04;;;;;;;8.23;4.17;;;;;;;;;;5070215;28;20824;-71
2022/09/24 03:47:31;;;;;;;4.00;3.30;;;;;;;;;;5069491;28;20450;-71
2022/09/24 03:49:58;;;;;;;5.67;3.77;;;;;;;;;;5068154;28;20446;-71
2022/09/24 03:52:26;;;;;;;4.73;3.73;;;;;;;;;;5069669;28;20454;-71
2022/09/24 03:54:53;;;;;;;4.10;3.47;;;;;;;;;;5070602;28;20955;-71
2022/09/24 03:57:20;;;;;;;3.77;3.37;;;;;;;;;;5069847;28;20450;-71
2022/09/24 03:59:47;;;;;;;4.50;3.17;;;;;;;;;;5070246;28;20452;-71
2022/09/24 04:02:16;;;;;;;6.17;3.73;;;;;;;;;;5071109;28;20446;-71
2022/09/24 04:04:43;;;;;;;4.00;3.33;;;;;;;;;;5061711;28;20509;-71
2022/09/24 04:07:11;;;;;;;4.50;3.03;;;;;;;;;;5070322;28;20963;-71
2022/09/24 04:09:38;;;;;;;7.23;3.60;;;;;;;;;;5069055;28;20637;-71
2022/09/24 04:12:05;;;;;;;3.87;2.83;;;;;;;;;;5070488;28;20456;-71
2022/09/24 04:14:32;;;;;;;2.90;2.70;;;;;;;;;;5063840;28;20457;-71
2022/09/24 04:16:59;;;;;;;3.30;2.63;;;;;;;;;;5070372;28;20453;-73
2022/09/24 04:19:30;;;;;;;4.30;3.30;;;;;;;;;;5068782;28;20472;-72
2022/09/24 04:21:57;;;;;;;6.43;4.13;;;;;;;;;;5070401;28;20463;-73
2022/09/24 04:24:25;;;;;;;4.10;3.00;;;;;;;;;;5069773;28;20473;-73
2022/09/24 04:26:52;;;;;;;10.63;3.80;;;;;;;;;;5069800;28;20481;-71
2022/09/24 04:29:20;;;;;;;4.40;3.30;;;;;;;;;;5068932;28;20446;-71
2022/09/24 04:31:47;;;;;;;3.57;3.27;;;;;;;;;;5070477;28;20521;-71
2022/09/24 04:34:14;;;;;;;5.20;3.73;;;;;;;;;;5070487;28;20453;-71
2022/09/24 04:36:42;;;;;;;4.97;3.70;;;;;;;;;;5069412;28;20460;-71
2022/09/24 04:39:11;;;;;;;4.23;3.83;;;;;;;;;;5069998;28;20465;-71
2022/09/24 04:41:38;;;;;;;3.30;3.00;;;;;;;;;;5069577;28;21445;-71
2022/09/24 04:44:06;;;;;;;5.30;4.10;;;;;;;;;;5069833;28;21061;-71
2022/09/24 04:46:33;;;;;;;4.33;3.93;;;;;;;;;;5069061;28;20894;-71
2022/09/24 04:49:00;;;;;;;4.70;3.70;;;;;;;;;;5069596;28;20456;-71
2022/09/24 04:51:27;;;;;;;4.40;3.47;;;;;;;;;;5069287;28;20533;-71
2022/09/24 04:53:55;;;;;;;4.23;3.20;;;;;;;;;;5070301;28;20454;-71
2022/09/24 04:56:22;;;;;;;3.47;3.17;;;;;;;;;;5069599;28;20878;-72
2022/09/24 04:58:51;;;;;;;3.73;3.43;;;;;;;;;;5070149;28;20669;-71
2022/09/24 05:01:19;;;;;;;4.17;3.17;;;;;;;;;;5073054;28;20523;-72
2022/09/24 05:03:46;;;;;;;4.00;3.60;;;;;;;;;;5073144;28;20499;-71
2022/09/24 05:06:13;;;;;;;4.30;3.50;;;;;;;;;;5073131;28;20453;-71
2022/09/24 05:08:40;;;;;;;3.27;2.97;;;;;;;;;;5071957;28;20565;-71
2022/09/24 05:11:09;;;;;;;5.10;3.20;;;;;;;;;;5072993;28;20846;-72
2022/09/24 05:13:36;;;;;;;4.40;3.33;;;;;;;;;;5073064;28;20450;-72
2022/09/24 05:16:03;;;;;;;3.60;3.20;;;;;;;;;;5073253;28;20442;-71
2022/09/24 05:18:31;;;;;;;5.53;3.80;;;;;;;;;;5072254;28;20441;-71
2022/09/24 05:20:58;;;;;;;6.23;3.63;;;;;;;;;;5073317;28;20486;-71
2022/09/24 05:23:25;;;;;;;7.33;3.87;;;;;;;;;;5072427;28;20481;-71
2022/09/24 05:28:38;;;;;;;3.73;3.20;;;;;;;;;;5071650;28;20495;-71
2022/09/24 05:31:05;;;;;;;4.97;3.20;;;;;;;;;;5072221;28;20458;-70
2022/09/24 05:33:32;;;;;;;4.63;4.13;;;;;;;;;;5072631;28;20804;-72
2022/09/24 05:35:59;;;;;;;5.90;3.87;;;;;;;;;;5073076;28;20456;-71
2022/09/24 05:38:28;;;;;;;3.50;3.20;;;;;;;;;;5072141;28;20812;-71
2022/09/24 05:40:55;;;;;;;3.17;2.90;;;;;;;;;;5072631;28;20457;-73
2022/09/24 05:43:26;;;;;;;8.33;4.03;;;;;;;;;;5072048;28;20504;-71
2022/09/24 05:45:57;;;;;;;5.63;3.83;;;;;;;;;;5073200;28;20855;-72
2022/09/24 05:48:24;;;;;;;4.77;3.00;;;;;;;;;;5071950;28;20442;-72
2022/09/24 05:50:54;;;;;;;9.63;7.00;;;;;;;;;;5071868;28;20468;-75
2022/09/24 05:53:21;;;;;;;6.97;4.70;;;;;;;;;;5070745;28;20465;-74
2022/09/24 05:55:48;;;;;;;3.90;3.50;;;;;;;;;;5071745;28;20571;-71
2022/09/24 05:58:16;;;;;;;6.83;3.80;;;;;;;;;;5071266;28;20960;-72
2022/09/24 06:00:44;;;;;;;4.33;3.80;;;;;;;;;;5072657;28;20500;-72
2022/09/24 06:03:14;;;;;;;10.83;6.57;;;;;;;;;;5071188;28;20477;-75
2022/09/24 06:05:44;;;;;;;5.43;4.93;;;;;;;;;;5071308;28;20458;-73
2022/09/24 06:08:14;;;;;;;4.60;3.47;;;;;;;;;;5071549;28;20442;-71
2022/09/24 06:10:41;;;;;;;4.03;3.27;;;;;;;;;;5071429;28;20450;-71
2022/09/24 06:13:10;;;;;;;4.20;3.27;;;;;;;;;;5071675;28;20449;-72
2022/09/24 06:15:37;;;;;;;3.87;3.50;;;;;;;;;;5070577;28;20500;-74
2022/09/24 06:18:04;;;;;;;3.33;3.00;;;;;;;;;;5071505;28;20461;-73
2022/09/24 06:20:33;;;;;;;5.70;4.30;;;;;;;;;;5071096;28;20956;-74
2022/09/24 06:23:01;;;;;;;6.00;4.00;;;;;;;;;;5071619;28;20949;-73
2022/09/24 06:25:28;;;;;;;5.37;4.50;;;;;;;;;;5070693;28;20541;-73
2022/09/24 06:28:00;;;;;;;4.23;3.77;;;;;;;;;;5071503;28;20481;-73
2022/09/24 06:30:27;;;;;;;5.20;4.30;;;;;;;;;;5069746;28;20446;-72
2022/09/24 06:32:55;;;;;;;5.93;4.77;;;;;;;;;;5072461;28;20454;-74
2022/09/24 06:35:22;;;;;;;5.20;4.47;;;;;;;;;;5072252;28;20454;-73
2022/09/24 06:37:53;;;;;;;5.20;4.40;;;;;;;;;;5072925;28;20449;-73
2022/09/24 06:40:24;;;;;;;5.33;4.83;;;;;;;;;;5071925;28;20438;-74
2022/09/24 06:42:52;;;;;;;5.83;4.53;;;;;;;;;;5073674;28;20994;-74
2022/09/24 06:45:19;;;;;;;3.57;3.27;;;;;;;;;;5063965;28;20546;-74
2022/09/24 06:47:53;;;;;;;4.87;4.37;;;;;;;;;;5074348;28;20433;-74
2022/09/24 06:50:20;;;;;;;4.93;4.13;;;;;;;;;;5071223;28;20460;-74
2022/09/24 06:52:47;;;;;;;5.13;4.40;;;;;;;;;;5071638;28;20453;-74
2022/09/24 06:55:16;;;;;;;4.93;4.33;;;;;;;;;;5071384;28;20937;-74
2022/09/24 06:57:44;;;;;;;4.60;4.20;;;;;;;;;;5071145;28;20464;-74
2022/09/24 07:00:12;;;;;;;3.90;3.47;;;;;;;;;;5070711;28;20547;-74
2022/09/24 07:02:40;;;;;;;5.33;4.60;;;;;;;;;;5070864;28;20522;-74
2022/09/24 07:05:07;;;;;;;4.90;3.90;;;;;;;;;;5071556;28;20492;-74
2022/09/24 07:07:35;;;;;;;5.63;3.80;;;;;;;;;;5070709;28;20928;-74
2022/09/24 07:10:03;;;;;;;5.00;4.50;;;;;;;;;;5071191;28;20533;-74
2022/09/24 07:12:32;;;;;;;4.33;3.93;;;;;;;;;;5070446;28;20937;-74
2022/09/24 07:15:00;;;;;;;6.37;5.00;;;;;;;;;;5071540;28;20808;-74
2022/09/24 07:17:28;;;;;;;5.33;4.80;;;;;;;;;;5070927;28;20536;-74
2022/09/24 07:19:55;;;;;;;6.10;4.10;;;;;;;;;;5071255;28;20444;-74
2022/09/24 07:22:22;;;;;;;5.60;5.00;;;;;;;;;;5070249;28;20812;-73
2022/09/24 07:24:49;;;;;;;6.47;4.47;;;;;;;;;;5071192;28;20481;-74
2022/09/24 07:27:18;;;;;;;4.77;4.27;;;;;;;;;;5071085;28;20473;-74
2022/09/24 07:29:46;;;;;;;5.73;5.23;;;;;;;;;;5071296;28;20507;-74
2022/09/24 07:32:15;;;;;;;8.20;4.50;;;;;;;;;;5070700;28;20441;-74
2022/09/24 07:34:42;;;;;;;7.10;5.03;;;;;;;;;;5071104;28;20450;-74
2022/09/24 07:37:10;;;;;;;6.83;4.60;;;;;;;;;;5057777;28;20929;-74
2022/09/24 07:39:37;;;;;;;8.30;4.90;;;;;;;;;;5070703;28;20450;-74
2022/09/24 07:42:05;;;;;;;6.97;4.40;;;;;;;;;;5070856;28;20794;-74
2022/09/24 07:44:32;;;;;;;9.40;5.30;;;;;;;;;;5070421;28;20484;-74
2022/09/24 07:47:01;;;;;;;7.17;4.23;;;;;;;;;;5071138;28;20541;-74
2022/09/24 07:49:30;;;;;;;5.17;4.40;;;;;;;;;;5070634;28;20445;-74
2022/09/24 07:51:58;;;;;;;5.63;5.13;;;;;;;;;;5073006;28;20484;-74
2022/09/24 07:54:25;;;;;;;6.37;4.57;;;;;;;;;;5072527;28;20836;-75
2022/09/24 07:56:53;;;;;;;5.97;3.80;;;;;;;;;;5072281;28;20461;-74
2022/09/24 07:59:20;;;;;;;5.20;4.70;;;;;;;;;;5071212;28;20556;-74
2022/09/24 08:01:47;;;;;;;5.80;4.50;;;;;;;;;;5070489;28;21236;-75
2022/09/24 08:04:17;;;;;;;4.73;4.30;;;;;;;;;;5070910;28;20560;-74
2022/09/24 08:06:44;;;;;;;5.70;4.53;;;;;;;;;;5071231;28;20437;-74
2022/09/24 08:09:11;;;;;;;5.23;4.23;;;;;;;;;;5071002;28;20781;-74
2022/09/24 08:11:38;;;;;;;6.00;4.53;;;;;;;;;;5070115;28;20480;-74
2022/09/24 08:14:05;;;;;;;4.43;3.83;;;;;;;;;;5070538;28;20453;-74
2022/09/24 08:16:33;;;;;;;5.17;4.03;;;;;;;;;;5070227;28;20481;-74
2022/09/24 08:19:00;;;;;;;4.90;4.50;;;;;;;;;;5070309;28;20533;-74
2022/09/24 08:21:29;;;;;;;6.03;4.80;;;;;;;;;;5069955;28;20450;-74
2022/09/24 08:23:56;;;;;;;5.93;5.20;;;;;;;;;;5070509;28;20450;-74
2022/09/24 08:26:23;;;;;;;5.00;4.47;;;;;;;;;;5069852;28;20462;-74
2022/09/24 08:28:50;;;;;;;7.10;4.27;;;;;;;;;;5070699;28;20449;-74
2022/09/24 08:31:18;;;;;;;18.93;4.80;;;;;;;;;;5070109;28;20545;-74
2022/09/24 08:33:49;;;;;;;5.43;4.20;;;;;;;;;;5073261;28;20446;-74
2022/09/24 08:36:18;;;;;;;4.17;3.77;;;;;;;;;;5074552;28;20809;-74
2022/09/24 08:38:46;;;;;;;5.20;4.37;;;;;;;;;;5074142;28;20944;-74
2022/09/24 08:41:25;;;;;;;5.77;5.20;;;;;;;;;;5073807;28;20567;-74
2022/09/24 08:43:56;;;;;;;5.90;4.70;;;;;;;;;;5074154;28;20452;-74
2022/09/24 08:49:15;;;;;;;4.90;4.40;;;;;;;;;;5073974;28;20967;-73
2022/09/24 08:51:46;;;;;;;6.50;4.63;;;;;;;;;;5072916;28;20965;-73
2022/09/24 08:54:15;;;;;;;6.37;4.50;;;;;;;;;;5074394;28;20449;-74
2022/09/24 08:56:44;;;;;;;5.40;4.90;;;;;;;;;;5073641;28;20575;-74
2022/09/24 08:59:15;;;;;;;6.63;4.77;;;;;;;;;;5073573;28;20465;-74
2022/09/24 09:01:46;;;;;;;3.30;3.00;;;;;;;;;;5072962;28;20450;-73
2022/09/24 09:04:22;;;;;;;3.60;2.90;;;;;;;;;;5074075;28;20473;-74
2022/09/24 09:06:58;;;;;;;4.47;3.33;;;;;;;;;;5074075;28;20444;-74
2022/09/24 09:09:28;;;;;;;1.70;1.60;;;;;;;;;;5072959;28;20444;-74
2022/09/24 09:11:59;;;;;;;2.93;2.30;;;;;;;;;;5073479;28;20453;-74
2022/09/24 09:14:35;;;;;;;3.90;2.33;;;;;;;;;;5072977;28;20454;-74
2022/09/24 09:17:04;;;;;;;2.07;1.77;;;;;;;;;;5073340;28;20456;-74
2022/09/24 09:19:34;;;;;;;2.17;1.83;;;;;;;;;;5072975;28;20445;-74
2022/09/24 09:22:04;;;;;;;2.90;2.23;;;;;;;;;;5072997;28;20797;-73
2022/09/24 09:24:38;;;;;;;2.57;2.10;;;;;;;;;;5062184;28;20474;-74
2022/09/24 09:27:11;;;;;;;2.40;2.20;;;;;;;;;;5073437;28;20485;-74
2022/09/24 09:29:38;;;;;;;2.87;2.13;;;;;;;;;;5072783;28;20445;-74
2022/09/24 09:32:09;;;;;;;2.60;1.87;;;;;;;;;;5073290;28;20445;-73
2022/09/24 09:34:52;;;;;;;3.27;2.23;;;;;;;;;;5073120;28;20453;-73
2022/09/24 09:37:23;;;;;;;2.70;1.83;;;;;;;;;;5072798;28;20548;-73
2022/09/24 09:39:56;;;;;;;2.53;2.00;;;;;;;;;;5072846;28;20865;-73
2022/09/24 09:42:30;;;;;;;1.90;1.70;;;;;;;;;;5072484;28;20990;-74
2022/09/24 09:45:00;;;;;;;2.87;2.67;;;;;;;;;;5072063;28;20526;-73
2022/09/24 09:47:33;;;;;;;3.50;2.00;;;;;;;;;;5072162;28;20955;-73
2022/09/24 09:50:05;;;;;;;2.73;2.07;;;;;;;;;;5072627;28;20511;-73
2022/09/24 09:52:34;;;;;;;2.63;2.17;;;;;;;;;;5072501;28;20429;-73
2022/09/24 09:55:05;;;;;;;2.40;1.90;;;;;;;;;;5072856;28;20450;-73
2022/09/24 09:57:34;;;;;;;1.53;1.43;;;;;;;;;;5072037;28;20450;-73
2022/09/24 10:00:05;;;;;;;2.47;2.27;;;;;;;;;;5059694;28;20450;-73
2022/09/24 10:02:33;;;;;;;2.47;2.03;;;;;;;;;;5072148;28;20847;-74
2022/09/24 10:05:02;;;;;;;3.00;2.27;;;;;;;;;;5072915;28;20485;-74
2022/09/24 10:07:30;;;;;;;3.33;2.43;;;;;;;;;;5072046;28;20469;-74
2022/09/24 10:10:04;;;;;;;2.57;2.23;;;;;;;;;;5072449;28;20449;-74
2022/09/24 10:12:32;;;;;;;4.20;2.27;;;;;;;;;;5072189;28;20541;-74
2022/09/24 10:15:01;;;;;;;3.87;3.03;;;;;;;;;;5072567;28;20452;-74
2022/09/24 10:17:30;;;;;;;2.43;2.00;;;;;;;;;;5071538;28;20453;-74
2022/09/24 10:19:57;;;;;;;4.37;2.30;;;;;;;;;;5072424;28;20537;-74
2022/09/24 10:22:25;;;;;;;3.00;2.33;;;;;;;;;;5071979;28;20446;-73
2022/09/24 10:24:53;;;;;;;2.60;2.17;;;;;;;;;;5072127;28;20489;-74
2022/09/24 10:27:23;;;;;;;3.77;2.10;;;;;;;;;;5071331;28;20489;-73
2022/09/24 10:32:39;;;;;;;3.87;2.60;;;;;;;;;;5071740;28;20440;-73
2022/09/24 10:35:21;;;;;;;3.90;2.20;;;;;;;;;;5072636;28;20485;-74
2022/09/24 10:37:52;;;;;;;4.50;2.43;;;;;;;;;;5073325;28;20952;-74
2022/09/24 10:40:22;;;;;;;2.90;2.07;;;;;;;;;;5071771;28;20477;-74
2022/09/24 10:42:55;;;;;;;3.80;2.87;;;;;;;;;;5071840;28;20945;-74
2022/09/24 10:45:28;;;;;;;2.80;2.30;;;;;;;;;;5071687;28;20547;-74
2022/09/24 10:48:00;;;;;;;3.37;2.80;;;;;;;;;;5074425;28;20445;-74
2022/09/24 10:50:29;;;;;;;2.10;1.90;;;;;;;;;;5075646;28;20441;-74
2022/09/24 10:52:58;;;;;;;2.77;2.57;;;;;;;;;;5075163;28;20446;-74
2022/09/24 10:55:32;;;;;;;2.30;2.10;;;;;;;;;;5071344;28;20452;-74
2022/09/24 10:58:02;;;;;;;2.50;2.00;;;;;;;;;;5070965;28;20441;-74
2022/09/24 11:00:35;;;;;;;4.40;2.43;;;;;;;;;;5070778;28;20446;-74
2022/09/24 11:03:23;;;;;;;3.37;1.90;;;;;;;;;;5071632;28;20438;-74
2022/09/24 11:05:54;;;;;;;2.97;1.70;;;;;;;;;;5071177;28;20470;-74
2022/09/24 11:08:25;;;;;;;2.20;2.00;;;;;;;;;;5071113;28;20441;-73
2022/09/24 11:11:13;;;;;;;2.87;1.77;;;;;;;;;;5070764;28;20446;-74
2022/09/24 11:13:44;;;;;;;3.03;2.30;;;;;;;;;;5065865;28;20902;-73
2022/09/24 11:16:22;;;;;;;2.40;2.20;;;;;;;;;;5071422;28;20445;-74
2022/09/24 11:18:54;;;;;;;2.97;2.57;;;;;;;;;;5071102;28;20450;-73
2022/09/24 11:21:28;;;;;;;3.43;2.27;;;;;;;;;;5070477;28;20525;-74
2022/09/24 11:24:06;;;;;;;2.23;1.80;;;;;;;;;;5070938;28;20452;-75
2022/09/24 11:26:37;;;;;;;2.33;1.80;;;;;;;;;;5070020;28;20493;-75
2022/09/24 11:29:12;;;;;;;3.80;1.73;;;;;;;;;;5071295;28;20544;-74
2022/09/24 11:31:42;;;;;;;2.60;1.90;;;;;;;;;;5070498;28;20461;-74
2022/09/24 11:34:21;;;;;;;2.27;1.93;;;;;;;;;;5071491;28;20446;-74
2022/09/24 11:36:58;;;;;;;2.40;1.83;;;;;;;;;;5071268;28;20449;-74
2022/09/24 11:39:32;;;;;;;2.60;1.80;;;;;;;;;;5070970;28;20441;-74
2022/09/24 11:42:04;;;;;;;1.93;1.60;;;;;;;;;;5071223;28;20437;-74
2022/09/24 11:44:51;;;;;;;2.57;2.30;;;;;;;;;;5070485;28;20456;-73
2022/09/24 11:47:26;;;;;;;4.20;2.10;;;;;;;;;;5071131;28;20454;-72
2022/09/24 11:50:02;;;;;;;2.17;1.97;;;;;;;;;;5070796;28;20453;-74
2022/09/24 11:52:33;;;;;;;4.10;2.27;;;;;;;;;;5070570;28;20943;-73
2022/09/24 11:55:04;;;;;;;3.17;2.30;;;;;;;;;;5071233;28;20926;-73
2022/09/24 11:57:33;;;;;;;2.57;2.13;;;;;;;;;;5070552;28;20480;-73
2022/09/24 12:00:04;;;;;;;2.40;2.20;;;;;;;;;;5070071;28;20956;-73
2022/09/24 12:02:34;;;;;;;2.90;2.00;;;;;;;;;;5070004;28;20894;-73
2022/09/24 12:05:04;;;;;;;3.13;2.10;;;;;;;;;;5070322;28;20904;-73
2022/09/24 12:07:36;;;;;;;2.30;1.97;;;;;;;;;;5070754;28;20823;-73
2022/09/24 12:10:09;;;;;;;2.83;2.40;;;;;;;;;;5074408;28;20932;-73
2022/09/24 12:12:38;;;;;;;2.60;2.27;;;;;;;;;;5073860;28;20913;-74
2022/09/24 12:15:07;;;;;;;3.03;2.37;;;;;;;;;;5074278;28;20454;-74
2022/09/24 12:17:38;;;;;;;3.27;2.30;;;;;;;;;;5074085;28;20453;-73
2022/09/24 12:20:09;;;;;;;2.93;2.63;;;;;;;;;;5074199;28;21005;-73
2022/09/24 12:22:38;;;;;;;2.93;2.23;;;;;;;;;;5074259;28;20528;-73
2022/09/24 12:25:07;;;;;;;3.80;2.67;;;;;;;;;;5074303;28;20450;-73
2022/09/24 12:27:35;;;;;;;3.30;2.47;;;;;;;;;;5073997;28;20528;-73
2022/09/24 12:32:54;;;;;;;3.67;3.10;;;;;;;;;;5074338;28;21058;-73
2022/09/24 12:35:26;;;;;;;4.10;3.23;;;;;;;;;;5074157;28;20441;-74
2022/09/24 12:37:55;;;;;;;4.40;2.30;;;;;;;;;;5074532;28;20441;-75
2022/09/24 12:40:35;;;;;;;3.13;2.80;;;;;;;;;;5073419;28;20456;-74
2022/09/24 12:43:04;;;;;;;22.10;12.17;;;;;;;;;;5074168;28;20447;-75
2022/09/24 12:45:32;;;;;;;8.77;4.17;;;;;;;;;;5073497;28;20481;-74
2022/09/24 12:48:02;;;;;;;8.43;4.87;;;;;;;;;;5073823;28;20524;-75
2022/09/24 12:50:31;;;;;;;3.43;2.53;;;;;;;;;;5073487;28;20446;-75
2022/09/24 12:52:58;;;;;;;2.50;2.20;;;;;;;;;;5074112;28;20453;-73
2022/09/24 12:55:27;;;;;;;3.07;2.00;;;;;;;;;;5073466;28;20452;-74
2022/09/24 12:57:56;;;;;;;2.87;2.30;;;;;;;;;;5073897;28;20454;-74
2022/09/24 13:00:37;;;;;;;2.93;2.50;;;;;;;;;;5072823;28;20739;-73
2022/09/24 13:03:06;;;;;;;3.33;2.37;;;;;;;;;;5073779;28;20446;-73
2022/09/24 13:05:34;;;;;;;2.80;2.33;;;;;;;;;;5072946;28;20481;-73
2022/09/24 13:08:02;;;;;;;4.57;3.40;;;;;;;;;;5060449;28;20479;-74
2022/09/24 13:10:30;;;;;;;3.43;2.33;;;;;;;;;;5072437;28;20465;-74
2022/09/24 13:12:59;;;;;;;3.13;2.53;;;;;;;;;;5073703;28;20453;-74
2022/09/24 13:15:36;;;;;;;3.60;2.70;;;;;;;;;;5072557;28;20878;-74
2022/09/24 13:18:06;;;;;;;2.60;2.30;;;;;;;;;;5073668;28;20446;-74
2022/09/24 13:20:34;;;;;;;3.00;2.53;;;;;;;;;;5071269;28;20452;-74
2022/09/24 13:23:12;;;;;;;2.60;2.40;;;;;;;;;;5073480;28;20567;-74
2022/09/24 13:25:39;;;;;;;3.57;3.00;;;;;;;;;;5072912;28;20480;-74
2022/09/24 13:28:20;;;;;;;3.53;2.63;;;;;;;;;;5073385;28;20505;-74
2022/09/24 13:30:50;;;;;;;3.60;2.50;;;;;;;;;;5072963;28;20800;-74
2022/09/24 13:33:23;;;;;;;2.97;2.43;;;;;;;;;;5073419;28;20796;-74
2022/09/24 13:36:02;;;;;;;3.27;2.33;;;;;;;;;;5073348;28;20450;-74
2022/09/24 13:38:31;;;;;;;2.83;2.60;;;;;;;;;;5072466;28;20560;-74
2022/09/24 13:41:01;;;;;;;3.03;2.40;;;;;;;;;;5072713;28;20541;-74
2022/09/24 13:43:34;;;;;;;3.93;3.43;;;;;;;;;;5073050;28;20468;-74
2022/09/24 13:46:02;;;;;;;3.80;3.27;;;;;;;;;;5073275;28;20479;-74
2022/09/24 13:48:34;;;;;;;5.40;3.63;;;;;;;;;;5072268;28;20956;-74
2022/09/24 13:51:02;;;;;;;5.50;4.03;;;;;;;;;;5072541;28;20456;-74
2022/09/24 13:53:31;;;;;;;4.47;3.30;;;;;;;;;;5072192;28;20449;-74
2022/09/24 13:56:00;;;;;;;4.37;3.27;;;;;;;;;;5072546;28;20457;-74
2022/09/24 13:58:27;;;;;;;4.83;3.43;;;;;;;;;;5072251;28;20810;-74
2022/09/24 14:00:55;;;;;;;6.90;3.10;;;;;;;;;;5072031;28;20453;-74
2022/09/24 14:03:24;;;;;;;4.57;3.57;;;;;;;;;;5072248;28;20449;-74
2022/09/24 14:05:53;;;;;;;3.87;3.10;;;;;;;;;;5072498;28;20482;-74
2022/09/24 14:08:22;;;;;;;5.80;3.70;;;;;;;;;;5072053;28;20450;-74
2022/09/24 14:10:49;;;;;;;5.33;3.90;;;;;;;;;;5071950;28;20477;-73
2022/09/24 14:13:20;;;;;;;6.13;5.53;;;;;;;;;;5072719;28;20457;-75
2022/09/24 14:15:54;;;;;;;4.20;3.80;;;;;;;;;;5072119;28;20453;-75
2022/09/24 14:18:21;;;;;;;5.97;5.47;;;;;;;;;;5071747;28;20484;-74
2022/09/24 14:20:51;;;;;;;7.83;6.27;;;;;;;;;;5071789;28;20468;-74
2022/09/24 14:23:21;;;;;;;10.80;8.40;;;;;;;;;;5071645;28;20453;-73
2022/09/24 14:25:48;;;;;;;10.97;9.37;;;;;;;;;;5071912;28;20471;-74
2022/09/24 14:28:16;;;;;;;8.63;7.73;;;;;;;;;;5072149;28;20610;-74
2022/09/24 14:30:48;;;;;;;11.33;7.70;;;;;;;;;;5071246;28;20446;-74
2022/09/24 14:33:18;;;;;;;6.17;4.77;;;;;;;;;;5071958;28;20448;-74
2022/09/24 14:35:47;;;;;;;11.13;8.17;;;;;;;;;;5072399;28;20457;-74
2022/09/24 14:38:15;;;;;;;7.90;6.10;;;;;;;;;;5072085;28;20454;-74
2022/09/24 14:40:45;;;;;;;6.23;5.10;;;;;;;;;;5071276;28;20446;-74
2022/09/24 14:43:16;;;;;;;3.77;3.30;;;;;;;;;;5071681;28;20453;-74
2022/09/24 14:45:45;;;;;;;5.87;3.23;;;;;;;;;;5071760;28;20495;-74
2022/09/24 14:48:19;;;;;;;4.30;3.37;;;;;;;;;;5071994;28;20448;-74
2022/09/24 14:50:46;;;;;;;4.83;3.30;;;;;;;;;;5072224;28;20446;-75
2022/09/24 14:53:21;;;;;;;3.30;2.60;;;;;;;;;;5072207;28;20457;-75
2022/09/24 14:55:49;;;;;;;3.77;3.47;;;;;;;;;;5072621;28;20488;-73
2022/09/24 14:58:24;;;;;;;4.83;3.00;;;;;;;;;;5072345;28;20458;-74
2022/09/24 15:00:54;;;;;;;3.20;2.80;;;;;;;;;;5071030;28;20441;-74
2022/09/24 15:03:24;;;;;;;4.60;3.90;;;;;;;;;;5071021;28;20457;-74
2022/09/24 15:05:51;;;;;;;5.27;3.20;;;;;;;;;;5071798;28;20442;-74
2022/09/24 15:08:26;;;;;;;6.77;3.60;;;;;;;;;;5071451;28;20461;-73
2022/09/24 15:10:55;;;;;;;3.90;3.50;;;;;;;;;;5071311;28;20498;-74
2022/09/24 15:13:23;;;;;;;4.17;3.77;;;;;;;;;;5070992;28;20442;-74